الصفحة الرئيسية
METAR-TAF:

METAR-TAF

مطار :

Monarch Pass

Salida, كولورادو, الولايات المتحدة

دائرة عرض: 38-29-04N, خط طول: 106-19-01W, ارتفاع: 3667 متر

مراقبة الطقس الحالي

تاريخ ووقت الإصدار 18 دقيقة قبل الساعة 15:13UTC
ريح 17 عقدة من الغرب تتزايد حتى 20 عقدة
درجة الحرارة -5°درجة مئوية
الرطوبة 35%
ضغط 1034 hPa
الرؤية: 16.1 كم
سماء صافية

METAR: KMYP 141513Z AUTO 27017G20KT 10SM CLR M05/M18 A3052 RMK AO2

زمن: 08:31 (15:31 UTC)


TAF: مفقودة

أرصاد الطقس والتوقعات من أكثر من 4000 مطار (تقارير الطقس للمطار METAR والتنبؤ بالطقس بالمطارTAF).

المحطات المتاحة هي النقط الصفراء والحمراء على الخريطة.

حرك المؤشر فوق النقطة لمعرفة اسم المحطة.

ثم انقر لمعرفة أرصاد وتوقعات الطقس.

لتغيير الخارطة: اضغط على الأزرار الخضراء مع رمز الصليب الأسود للتكبير. على الزر الأخضر مع شرطة للتصغير، أو على الأسهم الخضراء للخرائط المجاورة.


METAR-TAF: